createdAt,value
2022-08-07T00:02:36.495Z,102161.38
2022-08-07T00:05:05.771Z,102165.63
2022-08-07T00:07:40.070Z,102160.31
2022-08-07T00:10:27.350Z,102160.25
2022-08-07T00:13:09.852Z,102155.81
2022-08-07T00:15:51.515Z,102160.19
2022-08-07T00:18:24.446Z,102147.00
2022-08-07T00:20:55.156Z,102153.13
2022-08-07T00:23:28.496Z,102159.22
2022-08-07T00:26:04.127Z,102161.88
2022-08-07T00:28:45.863Z,102167.06
2022-08-07T00:31:26.039Z,102159.06
2022-08-07T00:34:08.970Z,102165.97
2022-08-07T00:36:38.682Z,102168.56
2022-08-07T00:39:16.940Z,102159.72
2022-08-07T00:42:02.455Z,102158.78
2022-08-07T00:44:38.201Z,102155.25
2022-08-07T00:47:16.028Z,102160.41
2022-08-07T00:50:20.351Z,102160.34
2022-08-07T00:52:47.318Z,102156.72
2022-08-07T00:55:17.239Z,102151.38
2022-08-07T00:57:55.179Z,102155.72
2022-08-07T01:00:27.688Z,102153.91
2022-08-07T01:02:56.771Z,102154.69
2022-08-07T01:05:28.013Z,102151.13
2022-08-07T01:07:58.405Z,102150.22
2022-08-07T01:10:27.143Z,102158.91
2022-08-07T01:12:55.898Z,102155.28
2022-08-07T01:15:35.905Z,102149.00
2022-08-07T01:18:17.081Z,102148.06
2022-08-07T01:20:59.293Z,102155.88
2022-08-07T01:23:34.671Z,102152.25
2022-08-07T01:26:11.957Z,102153.06
2022-08-07T01:28:45.834Z,102154.75
2022-08-07T01:31:17.775Z,102157.41
2022-08-07T01:33:56.108Z,102147.69
2022-08-07T01:36:33.533Z,102148.50
2022-08-07T01:39:09.511Z,102148.50
2022-08-07T01:41:40.839Z,102157.25
2022-08-07T01:44:27.800Z,102155.47
2022-08-07T01:46:56.532Z,102151.94
2022-08-07T01:49:25.016Z,102154.50
2022-08-07T01:52:03.473Z,102152.72
2022-08-07T01:54:37.815Z,102160.47
2022-08-07T01:57:08.964Z,102163.09
2022-08-07T01:59:55.000Z,102155.22
2022-08-07T02:03:11.251Z,102156.91
2022-08-07T02:05:43.065Z,102152.47
2022-08-07T02:08:17.351Z,102156.81
2022-08-07T02:10:55.457Z,102154.19
2022-08-07T02:13:57.664Z,102158.44
2022-08-07T02:16:28.737Z,102156.66
2022-08-07T02:19:05.366Z,102159.22
2022-08-07T02:21:58.587Z,102150.44
2022-08-07T02:24:30.267Z,102148.63
2022-08-07T02:27:02.965Z,102149.38
2022-08-07T02:29:32.913Z,102156.31
2022-08-07T02:32:06.632Z,102154.44
2022-08-07T02:34:49.019Z,102154.44
2022-08-07T02:37:21.392Z,102154.50
2022-08-07T02:40:02.546Z,102154.44
2022-08-07T02:42:43.849Z,102163.16
2022-08-07T02:45:58.417Z,102161.41
2022-08-07T02:48:05.249Z,102151.72
2022-08-07T02:50:43.639Z,102151.56
2022-08-07T02:53:16.344Z,102154.16
2022-08-07T02:56:03.413Z,102145.50
2022-08-07T02:58:36.692Z,102150.72
2022-08-07T03:01:10.345Z,102143.66
2022-08-07T03:03:49.827Z,102144.47
2022-08-07T03:06:26.240Z,102142.66
2022-08-07T03:09:02.897Z,102145.22
2022-08-07T03:11:38.974Z,102152.06
2022-08-07T03:14:23.225Z,102152.75
2022-08-07T03:16:54.061Z,102155.41
2022-08-07T03:19:22.683Z,102156.16
2022-08-07T03:21:52.202Z,102159.56
2022-08-07T03:24:26.925Z,102155.06
2022-08-07T03:27:00.430Z,102157.53
2022-08-07T03:29:36.685Z,102161.78
2022-08-07T03:32:13.397Z,102158.88
2022-08-07T03:34:47.628Z,102147.44
2022-08-07T03:37:37.340Z,102157.06
2022-08-07T03:40:16.926Z,102158.78
2022-08-07T03:42:46.040Z,102163.09
2022-08-07T03:45:30.153Z,102159.50
2022-08-07T03:48:00.273Z,102159.50
2022-08-07T03:50:29.663Z,102156.88
2022-08-07T03:53:00.256Z,102164.75
2022-08-07T03:55:52.953Z,102166.44
2022-08-07T03:59:06.730Z,102162.13
2022-08-07T04:01:11.665Z,102169.13
2022-08-07T04:03:53.390Z,102171.69
2022-08-07T04:06:37.761Z,102165.53
2022-08-07T04:09:11.762Z,102165.53
2022-08-07T04:12:21.414Z,102163.81
2022-08-07T04:14:38.625Z,102157.72
2022-08-07T04:17:16.471Z,102163.91
2022-08-07T04:19:54.072Z,102161.38
2022-08-07T04:22:29.243Z,102163.28
2022-08-07T04:25:01.640Z,102167.72
2022-08-07T04:27:35.536Z,102167.03
2022-08-07T04:30:11.631Z,102171.47
2022-08-07T04:32:44.898Z,102170.63
2022-08-07T04:35:16.351Z,102175.94
2022-08-07T04:38:05.397Z,102168.91
2022-08-07T04:40:33.361Z,102166.34
2022-08-07T04:43:03.273Z,102162.88
2022-08-07T04:45:58.093Z,102176.09
2022-08-07T04:48:40.646Z,102171.91
2022-08-07T04:51:17.428Z,102172.00
2022-08-07T04:54:06.508Z,102178.16
2022-08-07T04:58:12.967Z,102188.75
2022-08-07T05:00:10.783Z,102176.56
2022-08-07T05:02:29.184Z,102183.69
2022-08-07T05:05:11.968Z,102185.56
2022-08-07T05:07:57.940Z,102189.22
2022-08-07T05:10:33.125Z,102183.47
2022-08-07T05:14:44.311Z,102186.38
2022-08-07T05:15:59.205Z,102175.97
2022-08-07T05:18:36.620Z,102183.84
2022-08-07T05:21:10.857Z,102185.84
2022-08-07T05:23:43.333Z,102188.66
2022-08-07T05:26:24.097Z,102190.50
2022-08-07T05:28:57.382Z,102192.22
2022-08-07T05:31:35.277Z,102194.94
2022-08-07T05:34:11.184Z,102187.13
2022-08-07T05:36:43.084Z,102188.91
2022-08-07T05:40:17.371Z,102189.78
2022-08-07T05:42:05.276Z,102192.47
2022-08-07T05:44:37.835Z,102188.09
2022-08-07T05:47:19.918Z,102195.16
2022-08-07T05:49:50.036Z,102193.44
2022-08-07T05:52:20.636Z,102199.75
2022-08-07T05:55:10.329Z,102199.00
2022-08-07T05:57:41.979Z,102198.28
2022-08-07T06:00:16.261Z,102199.44
2022-08-07T06:02:51.402Z,102197.00
2022-08-07T06:05:25.871Z,102198.94
2022-08-07T06:08:29.564Z,102199.19
2022-08-07T06:10:49.417Z,102205.44
2022-08-07T06:14:12.257Z,102204.66
2022-08-07T06:16:10.327Z,102203.09
2022-08-07T06:18:43.331Z,102204.09
2022-08-07T06:22:15.514Z,102198.97
2022-08-07T06:24:50.730Z,102205.31
2022-08-07T06:26:59.681Z,102203.75
2022-08-07T06:29:33.916Z,102200.34
2022-08-07T06:32:02.611Z,102198.78
2022-08-07T06:34:33.060Z,102198.91
2022-08-07T06:37:02.456Z,102199.28
2022-08-07T06:40:13.545Z,102203.78
2022-08-07T06:42:32.979Z,102208.25
2022-08-07T06:45:05.559Z,102211.09
2022-08-07T06:47:48.027Z,102207.69
2022-08-07T06:50:27.147Z,102206.84
2022-08-07T06:53:04.095Z,102211.28
2022-08-07T06:56:00.032Z,102203.44
2022-08-07T06:58:28.727Z,102204.38
2022-08-07T07:00:59.371Z,102211.50
2022-08-07T07:03:48.852Z,102207.22
2022-08-07T07:06:23.749Z,102206.41
2022-08-07T07:08:54.645Z,102203.03
2022-08-07T07:12:08.937Z,102207.63
2022-08-07T07:14:14.163Z,102199.91
2022-08-07T07:16:50.774Z,102205.19
2022-08-07T07:19:56.309Z,102203.53
2022-08-07T07:22:36.236Z,102207.16
2022-08-07T07:26:30.773Z,102208.13
2022-08-07T07:28:07.754Z,102206.41
2022-08-07T07:31:01.138Z,102192.56
2022-08-07T07:33:29.739Z,102192.69
2022-08-07T07:36:05.543Z,102191.00
2022-08-07T07:38:45.904Z,102188.44
2022-08-07T07:41:17.580Z,102195.56
2022-08-07T07:44:16.823Z,102189.44
2022-08-07T07:46:55.329Z,102182.59
2022-08-07T07:50:33.642Z,102180.16
2022-08-07T07:52:19.016Z,102180.28
2022-08-07T07:54:50.537Z,102183.03
2022-08-07T07:57:44.372Z,102176.00
2022-08-07T08:00:21.059Z,102177.84
2022-08-07T08:03:07.869Z,102171.75
2022-08-07T08:05:54.481Z,102159.47
2022-08-07T08:08:36.305Z,102170.97
2022-08-07T08:11:09.016Z,102159.75
2022-08-07T08:13:54.029Z,102165.09
2022-08-07T08:16:34.994Z,102161.59
2022-08-07T08:19:17.416Z,102155.47
2022-08-07T08:22:15.889Z,102152.00
2022-08-07T08:25:24.865Z,102156.44
2022-08-07T08:28:01.756Z,102156.50
2022-08-07T08:30:35.067Z,102153.03
2022-08-07T08:33:16.860Z,102144.25
2022-08-07T08:35:49.894Z,102150.47
2022-08-07T08:38:25.779Z,102149.66
2022-08-07T08:41:05.069Z,102153.22
2022-08-07T08:43:42.854Z,102154.16
2022-08-07T08:46:44.973Z,102144.47
2022-08-07T08:49:33.147Z,102146.28
2022-08-07T08:52:13.729Z,102149.94
2022-08-07T08:54:51.008Z,102136.75
2022-08-07T08:57:30.390Z,102138.50
2022-08-07T09:00:07.950Z,102130.56
2022-08-07T09:02:49.507Z,102135.03
2022-08-07T09:05:38.697Z,102138.63
2022-08-07T09:08:28.794Z,102133.38
2022-08-07T09:11:24.787Z,102128.13
2022-08-07T09:14:12.296Z,102131.72
2022-08-07T09:16:55.572Z,102128.22
2022-08-07T09:19:53.503Z,102135.34
2022-08-07T09:24:31.728Z,102135.38
2022-08-07T09:25:40.460Z,102126.56
2022-08-07T09:30:06.430Z,102125.72
2022-08-07T09:31:15.596Z,102126.66
2022-08-07T09:34:00.190Z,102120.50
2022-08-07T09:36:37.068Z,102128.41
2022-08-07T09:39:52.651Z,102125.75
2022-08-07T09:42:22.915Z,102121.34
2022-08-07T09:46:28.604Z,102109.91
2022-08-07T09:48:11.742Z,102113.44
2022-08-07T09:50:52.505Z,102110.81
2022-08-07T09:53:23.622Z,102105.59
2022-08-07T09:56:19.676Z,102097.69
2022-08-07T09:59:35.645Z,102095.97
2022-08-07T10:02:35.792Z,102088.97
2022-08-07T10:05:59.101Z,102087.25
2022-08-07T10:08:43.941Z,102087.25
2022-08-07T10:12:02.721Z,102084.63
2022-08-07T10:14:31.205Z,102088.13
2022-08-07T10:17:14.116Z,102075.75
2022-08-07T10:19:56.321Z,102084.59
2022-08-07T10:22:50.973Z,102073.97
2022-08-07T10:25:42.290Z,102074.88
2022-08-07T10:28:25.963Z,102068.66
2022-08-07T10:31:10.978Z,102064.28
2022-08-07T10:34:05.833Z,102052.91
2022-08-07T10:36:58.809Z,102054.56
2022-08-07T10:40:02.705Z,102055.28
2022-08-07T10:42:39.766Z,102052.50
2022-08-07T10:45:25.268Z,102031.75
2022-08-07T10:48:34.975Z,102029.34
2022-08-07T10:51:16.975Z,102037.31
2022-08-07T10:54:07.973Z,102024.72
2022-08-07T10:56:46.879Z,102020.38
2022-08-07T10:59:30.334Z,102018.69
2022-08-07T11:02:12.479Z,102022.34
2022-08-07T11:05:11.168Z,102028.78
2022-08-07T11:08:00.835Z,102022.31
2022-08-07T11:10:37.970Z,102006.31
2022-08-07T11:13:42.415Z,102007.09
2022-08-07T11:16:08.178Z,102006.72
2022-08-07T11:18:50.923Z,102009.97
2022-08-07T11:21:31.898Z,102002.97
2022-08-07T11:24:08.518Z,102005.28
2022-08-07T11:26:48.018Z,102002.38
2022-08-07T11:29:41.202Z,101998.31
2022-08-07T11:32:25.873Z,101995.34
2022-08-07T11:34:59.747Z,101997.34
2022-08-07T11:37:58.317Z,101990.03
2022-08-07T11:40:40.890Z,101991.13
2022-08-07T11:43:41.239Z,101989.81
2022-08-07T11:46:29.504Z,101982.34
2022-08-07T11:50:25.593Z,101979.22
2022-08-07T11:52:51.235Z,101986.59
2022-08-07T11:56:25.235Z,101977.06
2022-08-07T11:58:33.429Z,101979.75
2022-08-07T12:01:20.175Z,101985.16
2022-08-07T12:04:26.851Z,101980.75
2022-08-07T12:07:03.921Z,101979.00
2022-08-07T12:09:47.361Z,101972.78
2022-08-07T12:12:26.480Z,101972.00
2022-08-07T12:15:05.093Z,101965.91
2022-08-07T12:17:58.875Z,101960.59
2022-08-07T12:20:32.268Z,101968.50
2022-08-07T12:23:17.859Z,101963.19
2022-08-07T12:26:05.495Z,101965.72
2022-08-07T12:28:53.960Z,101956.69
2022-08-07T12:32:02.186Z,101949.56
2022-08-07T12:34:27.472Z,101952.09
2022-08-07T12:36:58.907Z,101946.91
2022-08-07T12:39:43.869Z,101940.56
2022-08-07T12:42:27.589Z,101943.84
2022-08-07T12:45:00.256Z,101929.69
2022-08-07T12:47:42.787Z,101930.56
2022-08-07T12:50:33.994Z,101923.81
2022-08-07T12:53:18.141Z,101921.84
2022-08-07T12:56:02.452Z,101916.97
2022-08-07T12:58:39.913Z,101913.97
2022-08-07T13:01:19.554Z,101917.53
2022-08-07T13:04:05.054Z,101912.22
2022-08-07T13:07:03.971Z,101909.59
2022-08-07T13:10:37.101Z,101905.44
2022-08-07T13:13:00.608Z,101897.25
2022-08-07T13:15:57.317Z,101900.88
2022-08-07T13:18:38.453Z,101897.25
2022-08-07T13:21:14.327Z,101893.91
2022-08-07T13:24:11.531Z,101886.22
2022-08-07T13:26:46.366Z,101886.06
2022-08-07T13:29:21.733Z,101883.50
2022-08-07T13:32:00.065Z,101883.03
2022-08-07T13:34:44.814Z,101877.66
2022-08-07T13:37:26.724Z,101881.47
2022-08-07T13:40:41.736Z,101886.94
2022-08-07T13:42:59.365Z,101877.63
2022-08-07T13:46:16.405Z,101883.13
2022-08-07T13:48:33.763Z,101879.25
2022-08-07T13:51:27.510Z,101872.38
2022-08-07T13:54:00.264Z,101872.34
2022-08-07T13:56:36.119Z,101868.34
2022-08-07T13:59:13.566Z,101858.41
2022-08-07T14:01:51.541Z,101864.22
2022-08-07T14:04:36.395Z,101858.16
2022-08-07T14:07:10.455Z,101855.56
2022-08-07T14:10:01.325Z,101850.50
2022-08-07T14:12:41.655Z,101853.19
2022-08-07T14:15:19.280Z,101845.03
2022-08-07T14:18:15.963Z,101848.31
2022-08-07T14:22:41.032Z,101851.56
2022-08-07T14:24:00.261Z,101846.19
2022-08-07T14:26:35.862Z,101841.25
2022-08-07T14:30:05.596Z,101836.28
2022-08-07T14:32:01.150Z,101836.88
2022-08-07T14:34:31.952Z,101845.34
2022-08-07T14:37:04.407Z,101833.94
2022-08-07T14:40:16.565Z,101834.72
2022-08-07T14:42:32.256Z,101834.22
2022-08-07T14:47:58.712Z,101828.38
2022-08-07T14:50:37.441Z,101829.38
2022-08-07T14:53:09.777Z,101830.19
2022-08-07T14:55:55.553Z,101838.69
2022-08-07T14:58:32.520Z,101830.19
2022-08-07T15:01:21.501Z,101817.91
2022-08-07T15:03:53.357Z,101822.84
2022-08-07T15:06:26.822Z,101824.66
2022-08-07T15:09:47.125Z,101824.25
2022-08-07T15:13:05.887Z,101828.06
2022-08-07T15:14:57.776Z,101827.38
2022-08-07T15:17:32.656Z,101811.66
2022-08-07T15:20:33.205Z,101812.00
2022-08-07T15:25:58.460Z,101806.88
2022-08-07T15:32:00.765Z,101815.03
2022-08-07T15:39:59.035Z,101796.66
2022-08-07T15:42:51.825Z,101801.81
2022-08-07T15:45:55.759Z,101803.75
2022-08-07T15:48:31.611Z,101798.53
2022-08-07T15:51:09.232Z,101796.91
2022-08-07T15:53:52.363Z,101799.66
2022-08-07T15:56:33.293Z,101791.56
2022-08-07T15:59:06.121Z,101785.06
2022-08-07T16:02:01.912Z,101782.16
2022-08-07T16:04:34.161Z,101783.66
2022-08-07T16:08:32.850Z,101778.31
2022-08-07T16:10:03.785Z,101778.25
2022-08-07T16:12:42.157Z,101774.72
2022-08-07T16:15:57.705Z,101778.31
2022-08-07T16:18:49.314Z,101771.34
2022-08-07T16:22:01.183Z,101774.81
2022-08-07T16:24:34.733Z,101773.81
2022-08-07T16:27:17.873Z,101775.66
2022-08-07T16:30:30.478Z,101768.75
2022-08-07T16:34:06.022Z,101768.75
2022-08-07T16:36:20.177Z,101767.09
2022-08-07T16:39:33.622Z,101768.00
2022-08-07T16:42:30.154Z,101754.72
2022-08-07T16:46:21.191Z,101766.25
2022-08-07T16:49:04.325Z,101767.25
2022-08-07T16:52:01.877Z,101769.09
2022-08-07T16:54:54.158Z,101770.06
2022-08-07T16:58:01.813Z,101770.97
2022-08-07T17:00:30.155Z,101764.84
2022-08-07T17:03:58.275Z,101769.31
2022-08-07T17:06:30.380Z,101769.41
2022-08-07T17:09:13.981Z,101770.34
2022-08-07T17:12:04.090Z,101768.59
2022-08-07T17:14:44.996Z,101764.22
2022-08-07T17:17:46.059Z,101765.97
2022-08-07T17:20:30.061Z,101768.63
2022-08-07T17:23:08.592Z,101770.34
2022-08-07T17:25:54.571Z,101765.94
2022-08-07T17:28:32.408Z,101766.88
2022-08-07T17:31:15.669Z,101766.06
2022-08-07T17:34:17.938Z,101767.81
2022-08-07T17:36:57.463Z,101770.56
2022-08-07T17:39:53.090Z,101777.69
2022-08-07T17:42:59.620Z,101766.25
2022-08-07T17:45:35.065Z,101775.13
2022-08-07T17:48:12.658Z,101768.97
2022-08-07T17:50:54.400Z,101773.41
2022-08-07T17:54:00.711Z,101776.94
2022-08-07T17:56:29.198Z,101772.53
2022-08-07T17:59:08.961Z,101772.56
2022-08-07T18:01:48.563Z,101769.00
2022-08-07T18:04:31.221Z,101772.53
2022-08-07T18:07:20.200Z,101767.28
2022-08-07T18:10:06.273Z,101779.69
2022-08-07T18:13:09.956Z,101765.53
2022-08-07T18:15:53.576Z,101780.63
2022-08-07T18:18:46.130Z,101772.69
2022-08-07T18:21:37.338Z,101767.47
2022-08-07T18:24:33.409Z,101769.28
2022-08-07T18:27:38.408Z,101773.81
2022-08-07T18:30:32.321Z,101773.91
2022-08-07T18:33:34.716Z,101781.09
2022-08-07T18:36:14.110Z,101777.59
2022-08-07T18:40:07.164Z,101785.69
2022-08-07T18:42:03.993Z,101792.75
2022-08-07T18:47:49.075Z,101793.78
2022-08-07T18:50:58.481Z,101792.03
2022-08-07T18:53:45.153Z,101787.63
2022-08-07T18:56:32.094Z,101792.94
2022-08-07T18:59:47.208Z,101802.63
2022-08-07T19:02:42.414Z,101803.59
2022-08-07T19:05:21.293Z,101809.84
2022-08-07T19:07:58.665Z,101809.88
2022-08-07T19:10:49.614Z,101815.22
2022-08-07T19:13:26.591Z,101809.06
2022-08-07T19:16:04.759Z,101802.91
2022-08-07T19:18:58.056Z,101810.88
2022-08-07T19:21:44.136Z,101813.56
2022-08-07T19:24:30.388Z,101819.81
2022-08-07T19:28:58.035Z,101812.78
2022-08-07T19:31:05.606Z,101819.84
2022-08-07T19:32:50.887Z,101818.09
2022-08-07T19:35:24.520Z,101819.88
2022-08-07T19:37:58.312Z,101822.53
2022-08-07T19:40:31.451Z,101824.28
2022-08-07T19:43:09.393Z,101823.44
2022-08-07T19:46:07.180Z,101836.66
2022-08-07T19:48:42.999Z,101837.56
2022-08-07T19:51:20.033Z,101834.03
2022-08-07T19:54:32.173Z,101833.13
2022-08-07T19:57:50.932Z,101834.00
2022-08-07T19:59:40.509Z,101834.00
2022-08-07T20:02:19.698Z,101834.91
2022-08-07T20:05:00.412Z,101834.88
2022-08-07T20:07:47.855Z,101842.84
2022-08-07T20:10:37.041Z,101841.06
2022-08-07T20:13:23.428Z,101833.97
2022-08-07T20:15:57.811Z,101841.91
2022-08-07T20:18:32.721Z,101838.41
2022-08-07T20:21:21.571Z,101851.59
2022-08-07T20:24:00.154Z,101839.25
2022-08-07T20:26:32.385Z,101849.81
2022-08-07T20:29:10.414Z,101851.59
2022-08-07T20:31:46.530Z,101856.84
2022-08-07T20:34:40.073Z,101846.25
2022-08-07T20:37:10.092Z,101856.81
2022-08-07T20:40:02.958Z,101856.81
2022-08-07T20:42:32.293Z,101853.25
2022-08-07T20:45:02.131Z,101850.53
2022-08-07T20:47:55.524Z,101855.84
2022-08-07T20:50:28.992Z,101850.50
2022-08-07T20:53:00.270Z,101857.56
2022-08-07T20:55:35.974Z,101853.16
2022-08-07T20:58:08.874Z,101856.66
2022-08-07T21:00:46.044Z,101861.03
2022-08-07T21:03:18.919Z,101860.13
2022-08-07T21:05:56.975Z,101861.88
2022-08-07T21:08:36.536Z,101859.19
2022-08-07T21:11:12.220Z,101854.81
2022-08-07T21:14:16.180Z,101862.72
2022-08-07T21:16:56.087Z,101867.97
2022-08-07T21:19:32.340Z,101865.31
2022-08-07T21:22:19.064Z,101869.72
2022-08-07T21:25:04.723Z,101868.81
2022-08-07T21:27:53.696Z,101862.63
2022-08-07T21:30:30.089Z,101867.00
2022-08-07T21:33:08.657Z,101867.84
2022-08-07T21:36:05.277Z,101863.44
2022-08-07T21:38:46.201Z,101866.06
2022-08-07T21:41:25.758Z,101871.31
2022-08-07T21:44:05.404Z,101862.50
2022-08-07T21:46:42.008Z,101868.59
2022-08-07T21:49:16.404Z,101873.00
2022-08-07T21:52:06.251Z,101865.06
2022-08-07T21:54:51.133Z,101859.69
2022-08-07T21:57:44.638Z,101865.81
2022-08-07T22:00:23.246Z,101871.09
2022-08-07T22:03:03.608Z,101867.53
2022-08-07T22:05:45.914Z,101871.03
2022-08-07T22:08:21.728Z,101869.22
2022-08-07T22:10:58.965Z,101866.59
2022-08-07T22:13:50.980Z,101863.03
2022-08-07T22:16:40.948Z,101861.28
2022-08-07T22:19:29.380Z,101864.75
2022-08-07T22:22:18.190Z,101863.00
2022-08-07T22:25:02.969Z,101866.47
2022-08-07T22:28:03.163Z,101864.69
2022-08-07T22:30:30.918Z,101866.44
2022-08-07T22:33:09.180Z,101859.38
2022-08-07T22:35:42.894Z,101865.50
2022-08-07T22:38:30.868Z,101863.72
2022-08-07T22:41:07.433Z,101861.03
2022-08-07T22:43:41.912Z,101870.72
2022-08-07T22:47:02.483Z,101872.44
2022-08-07T22:49:54.229Z,101866.25
2022-08-07T22:52:46.385Z,101873.25
2022-08-07T22:55:31.987Z,101872.38
2022-08-07T22:58:45.041Z,101874.09
2022-08-07T23:01:30.558Z,101880.22
2022-08-07T23:04:35.182Z,101873.19
2022-08-07T23:07:41.805Z,101870.56
2022-08-07T23:10:38.014Z,101873.16
2022-08-07T23:13:29.510Z,101872.22
2022-08-07T23:16:46.344Z,101877.44
2022-08-07T23:19:51.392Z,101874.81
2022-08-07T23:22:36.012Z,101877.34
2022-08-07T23:25:21.539Z,101874.69
2022-08-07T23:28:29.025Z,101876.41
2022-08-07T23:31:18.820Z,101879.97
2022-08-07T23:34:43.175Z,101874.69
2022-08-07T23:37:29.413Z,101875.66
2022-08-07T23:40:13.748Z,101873.88
2022-08-07T23:42:54.592Z,101872.94
2022-08-07T23:46:01.448Z,101875.53
2022-08-07T23:48:34.075Z,101870.25
2022-08-07T23:52:55.916Z,101881.66
2022-08-07T23:54:05.392Z,101863.19
2022-08-07T23:56:53.981Z,101876.38
